createdAt,value
2017-08-12T00:00:41.164Z,0
2017-08-12T00:01:51.526Z,0
2017-08-12T00:03:01.938Z,0
2017-08-12T00:04:12.278Z,0
2017-08-12T00:05:22.336Z,0
2017-08-12T00:06:32.380Z,0
2017-08-12T00:07:42.727Z,0
2017-08-12T00:08:53.141Z,0
2017-08-12T00:10:03.495Z,0
2017-08-12T00:11:13.839Z,0
2017-08-12T00:12:24.195Z,0
2017-08-12T00:13:34.554Z,0
2017-08-12T00:14:44.947Z,0
2017-08-12T00:15:55.327Z,0
2017-08-12T00:17:05.355Z,0
2017-08-12T00:18:15.697Z,0
2017-08-12T00:19:26.050Z,0
2017-08-12T00:20:36.453Z,0
2017-08-12T00:21:46.507Z,0
2017-08-12T00:22:56.550Z,0
2017-08-12T00:24:06.896Z,0
2017-08-12T00:25:17.238Z,0
2017-08-12T00:26:27.625Z,0
2017-08-12T00:27:37.999Z,0
2017-08-12T00:28:48.031Z,0
2017-08-12T00:29:58.074Z,0
2017-08-12T00:31:08.419Z,0
2017-08-12T00:32:18.822Z,0
2017-08-12T00:33:28.850Z,0
2017-08-12T00:34:38.895Z,0
2017-08-12T00:35:49.249Z,0
2017-08-12T00:36:59.595Z,0
2017-08-12T00:38:10.014Z,0
2017-08-12T00:39:20.396Z,0
2017-08-12T00:40:30.436Z,0
2017-08-12T00:41:40.781Z,0
2017-08-12T00:42:51.137Z,0
2017-08-12T00:44:01.554Z,0
2017-08-12T00:45:11.897Z,0
2017-08-12T00:46:21.933Z,0
2017-08-12T00:47:31.971Z,0
2017-08-12T00:48:42.341Z,0
2017-08-12T00:49:52.431Z,0
2017-08-12T00:51:02.473Z,0
2017-08-12T00:52:12.815Z,0
2017-08-12T00:53:23.165Z,0
2017-08-12T00:54:33.518Z,0
2017-08-12T00:55:43.924Z,0
2017-08-12T00:56:54.269Z,0
2017-08-12T00:58:04.620Z,0
2017-08-12T00:59:14.961Z,0
2017-08-12T01:00:26.416Z,0
2017-08-12T01:01:36.509Z,0
2017-08-12T01:02:46.880Z,0
2017-08-12T01:03:57.241Z,0
2017-08-12T01:05:07.605Z,0
2017-08-12T01:06:17.326Z,0
2017-08-12T01:07:27.723Z,0
2017-08-12T01:08:37.763Z,0
2017-08-12T01:09:47.814Z,0
2017-08-12T01:10:57.879Z,0
2017-08-12T01:12:08.243Z,0
2017-08-12T01:13:18.334Z,0
2017-08-12T01:14:28.682Z,0
2017-08-12T01:15:39.033Z,0
2017-08-12T01:16:49.396Z,0
2017-08-12T01:17:59.743Z,0
2017-08-12T01:19:10.146Z,0
2017-08-12T01:20:20.501Z,0
2017-08-12T01:21:30.860Z,0
2017-08-12T01:22:41.205Z,0
2017-08-12T01:23:51.247Z,0
2017-08-12T01:25:01.346Z,0
2017-08-12T01:26:11.682Z,0
2017-08-12T01:27:21.722Z,0
2017-08-12T01:28:32.082Z,0
2017-08-12T01:29:42.428Z,0
2017-08-12T01:30:52.853Z,0
2017-08-12T01:32:03.204Z,0
2017-08-12T01:33:13.250Z,0
2017-08-12T01:34:23.601Z,0
2017-08-12T01:35:33.955Z,0
2017-08-12T01:36:44.053Z,0
2017-08-12T01:37:54.410Z,0
2017-08-12T01:39:04.448Z,0
2017-08-12T01:40:14.796Z,0
2017-08-12T01:41:25.241Z,0
2017-08-12T01:42:35.643Z,0
2017-08-12T01:43:46.004Z,0
2017-08-12T01:44:56.046Z,0
2017-08-12T01:46:06.397Z,0
2017-08-12T01:47:16.431Z,0
2017-08-12T01:48:26.845Z,0
2017-08-12T01:49:36.882Z,0
2017-08-12T01:50:47.240Z,0
2017-08-12T01:51:57.276Z,0
2017-08-12T01:53:07.631Z,0
2017-08-12T01:54:18.018Z,0
2017-08-12T01:55:28.358Z,0
2017-08-12T01:56:38.404Z,0
2017-08-12T01:57:48.451Z,0
2017-08-12T01:58:58.809Z,0
2017-08-12T02:00:09.201Z,0
2017-08-12T02:01:19.555Z,0
2017-08-12T02:02:29.609Z,0
2017-08-12T02:03:39.643Z,0
2017-08-12T02:04:49.995Z,0
2017-08-12T02:06:00.070Z,0
2017-08-12T02:07:10.414Z,0
2017-08-12T02:08:20.797Z,0
2017-08-12T02:09:30.868Z,0
2017-08-12T02:10:40.602Z,0
2017-08-12T02:11:51.007Z,0
2017-08-12T02:13:01.377Z,0
2017-08-12T02:14:11.434Z,0
2017-08-12T02:15:21.773Z,0
2017-08-12T02:16:31.808Z,0
2017-08-12T02:17:42.216Z,0
2017-08-12T02:18:52.565Z,0
2017-08-12T02:20:02.912Z,0
2017-08-12T02:21:13.273Z,0
2017-08-12T02:22:23.627Z,0
2017-08-12T02:23:33.752Z,0
2017-08-12T02:24:44.092Z,0
2017-08-12T02:25:53.503Z,0
2017-08-12T02:27:03.540Z,0
2017-08-12T02:28:13.896Z,0
2017-08-12T02:29:24.289Z,0
2017-08-12T02:30:34.323Z,0
2017-08-12T02:31:44.370Z,0
2017-08-12T02:32:54.728Z,0
2017-08-12T02:34:05.072Z,0
2017-08-12T02:35:15.473Z,0
2017-08-12T02:36:25.532Z,0
2017-08-12T02:37:35.583Z,0
2017-08-12T02:38:45.946Z,0
2017-08-12T02:39:55.973Z,0
2017-08-12T02:41:06.050Z,0
2017-08-12T02:42:16.388Z,0
2017-08-12T02:43:26.729Z,0
2017-08-12T02:44:37.078Z,0
2017-08-12T02:45:47.415Z,0
2017-08-12T02:46:58.966Z,0
2017-08-12T02:48:09.310Z,0
2017-08-12T02:49:19.031Z,0
2017-08-12T02:50:29.394Z,0
2017-08-12T02:51:39.441Z,0
2017-08-12T02:52:49.527Z,0
2017-08-12T02:53:59.902Z,0
2017-08-12T02:55:10.255Z,0
2017-08-12T02:56:20.305Z,0
2017-08-12T02:57:30.665Z,0
2017-08-12T02:58:41.051Z,0
2017-08-12T02:59:51.095Z,0
2017-08-12T03:01:01.133Z,0
2017-08-12T03:02:11.164Z,0
2017-08-12T03:33:38.474Z,44
2017-08-12T03:34:48.803Z,52
2017-08-12T03:35:58.816Z,60
2017-08-12T03:37:08.862Z,64
2017-08-12T03:38:18.913Z,72
2017-08-12T03:39:29.306Z,80
2017-08-12T03:40:39.337Z,92
2017-08-12T03:41:48.751Z,100
2017-08-12T03:42:58.811Z,108
2017-08-12T03:44:09.150Z,124
2017-08-12T03:45:19.553Z,136
2017-08-12T03:46:29.624Z,156
2017-08-12T03:47:39.651Z,172
2017-08-12T03:48:50.007Z,192
2017-08-12T03:50:00.362Z,212
2017-08-12T03:51:10.758Z,232
2017-08-12T03:52:21.101Z,252
2017-08-12T03:53:31.451Z,276
2017-08-12T03:54:41.178Z,300
2017-08-12T03:55:51.526Z,324
2017-08-12T03:57:01.937Z,356
2017-08-12T03:58:13.949Z,384
2017-08-12T03:59:24.295Z,424
2017-08-12T04:00:34.345Z,484
2017-08-12T04:01:44.685Z,536
2017-08-12T04:02:55.076Z,588
2017-08-12T04:04:05.414Z,628
2017-08-12T04:05:15.765Z,668
2017-08-12T04:06:26.650Z,708
2017-08-12T04:07:36.673Z,756
2017-08-12T04:08:47.069Z,800
2017-08-12T04:09:56.491Z,836
2017-08-12T04:11:06.223Z,872
2017-08-12T04:12:16.559Z,908
2017-08-12T04:13:26.918Z,940
2017-08-12T04:14:37.570Z,1052
2017-08-12T04:15:47.299Z,1060
2017-08-12T04:16:57.033Z,1068
2017-08-12T04:18:07.389Z,1236
2017-08-12T04:19:17.753Z,1004
2017-08-12T04:20:28.163Z,1168
2017-08-12T04:21:38.522Z,1200
2017-08-12T04:22:50.520Z,1248
2017-08-12T04:24:00.875Z,1292
2017-08-12T04:25:11.216Z,1332
2017-08-12T04:26:21.616Z,1368
2017-08-12T04:27:31.973Z,1448
2017-08-12T04:28:42.324Z,2572
2017-08-12T04:29:53.117Z,4352
2017-08-12T04:31:03.959Z,3296
2017-08-12T04:32:14.380Z,2904
2017-08-12T04:33:24.422Z,2892
2017-08-12T04:34:34.449Z,2512
2017-08-12T04:35:44.793Z,1728
2017-08-12T04:36:54.833Z,1740
2017-08-12T04:38:05.224Z,1780
2017-08-12T04:39:15.258Z,1772
2017-08-12T04:40:25.288Z,1832
2017-08-12T04:41:35.650Z,1844
2017-08-12T04:42:45.999Z,1832
2017-08-12T04:43:56.418Z,1916
2017-08-12T04:45:06.457Z,1892
2017-08-12T04:46:16.490Z,2208
2017-08-12T04:47:26.533Z,1976
2017-08-12T04:48:36.567Z,2124
2017-08-12T04:49:46.974Z,2272
2017-08-12T04:50:57.001Z,2472
2017-08-12T04:52:07.357Z,2188
2017-08-12T04:53:17.721Z,6128
2017-08-12T04:54:27.756Z,11228
2017-08-12T04:55:38.183Z,11760
2017-08-12T04:56:48.554Z,11736
2017-08-12T04:57:58.288Z,12036
2017-08-12T04:59:08.344Z,12240
2017-08-12T05:00:18.687Z,12464
2017-08-12T05:01:28.792Z,12360
2017-08-12T05:02:38.829Z,12348
2017-08-12T05:03:49.178Z,12540
2017-08-12T05:04:59.531Z,12736
2017-08-12T05:06:09.879Z,12880
2017-08-12T05:07:20.274Z,12800
2017-08-12T05:08:30.641Z,12824
2017-08-12T05:09:41.014Z,13152
2017-08-12T05:10:51.379Z,13356
2017-08-12T05:12:01.732Z,13300
2017-08-12T05:13:12.146Z,13164
2017-08-12T05:14:22.211Z,13272
2017-08-12T05:15:32.257Z,13264
2017-08-12T05:16:42.616Z,13284
2017-08-12T05:17:52.984Z,13368
2017-08-12T05:19:03.399Z,13300
2017-08-12T05:20:13.760Z,13260
2017-08-12T05:21:24.109Z,13252
2017-08-12T05:22:34.486Z,13436
2017-08-12T05:23:44.842Z,13772
2017-08-12T05:24:55.245Z,13804
2017-08-12T05:26:05.602Z,13684
2017-08-12T05:27:16.023Z,13432
2017-08-12T05:28:26.370Z,13656
2017-08-12T05:29:36.730Z,13772
2017-08-12T05:30:46.820Z,13712
2017-08-12T05:31:57.159Z,13620
2017-08-12T05:33:06.877Z,13628
2017-08-12T05:34:16.905Z,13724
2017-08-12T05:35:27.275Z,13604
2017-08-12T05:36:37.380Z,13544
2017-08-12T05:37:47.871Z,13612
2017-08-12T05:38:57.935Z,13480
2017-08-12T05:40:07.961Z,13416
2017-08-12T05:41:18.318Z,13312
2017-08-12T05:42:28.096Z,13412
2017-08-12T05:43:38.132Z,13516
2017-08-12T05:44:48.512Z,13308
2017-08-12T05:45:58.547Z,12084
2017-08-12T05:47:08.911Z,12176
2017-08-12T05:48:19.314Z,12648
2017-08-12T05:49:29.377Z,5580
2017-08-12T05:50:39.715Z,11016
2017-08-12T05:51:49.753Z,12916
2017-08-12T05:53:00.097Z,9948
2017-08-12T05:54:10.512Z,4732
2017-08-12T05:55:20.541Z,11004
2017-08-12T05:56:30.907Z,13008
2017-08-12T05:57:40.947Z,12620
2017-08-12T05:58:51.306Z,9820
2017-08-12T06:00:01.711Z,6916
2017-08-12T06:01:12.053Z,4168
2017-08-12T06:02:22.393Z,3880
2017-08-12T06:03:32.747Z,3744
2017-08-12T06:04:43.105Z,3840
2017-08-12T06:05:53.197Z,3728
2017-08-12T06:07:03.591Z,3728
2017-08-12T06:08:13.935Z,3760
2017-08-12T06:09:24.292Z,3844
2017-08-12T06:10:34.651Z,3696
2017-08-12T06:11:45.070Z,3556
2017-08-12T06:12:55.427Z,3620
2017-08-12T06:14:05.780Z,3740
2017-08-12T06:15:16.122Z,3684
2017-08-12T06:16:26.182Z,3744
2017-08-12T06:17:35.974Z,3852
2017-08-12T06:18:46.334Z,3888
2017-08-12T06:19:56.691Z,3576
2017-08-12T06:21:07.035Z,3996
2017-08-12T06:22:17.398Z,4088
2017-08-12T06:23:27.478Z,4176
2017-08-12T06:24:37.523Z,4184
2017-08-12T06:25:47.909Z,4476
2017-08-12T06:26:58.266Z,5172
2017-08-12T06:28:08.625Z,5724
2017-08-12T06:29:18.733Z,5612
2017-08-12T06:30:28.778Z,5704
2017-08-12T06:31:39.139Z,6092
2017-08-12T06:32:49.487Z,6304
2017-08-12T06:33:59.854Z,6316
2017-08-12T06:35:10.261Z,6224
2017-08-12T06:36:20.614Z,6272
2017-08-12T06:37:30.967Z,6396
2017-08-12T06:38:41.006Z,5952
2017-08-12T06:39:51.357Z,5440
2017-08-12T06:41:01.773Z,4968
2017-08-12T06:42:11.817Z,5540
2017-08-12T06:43:22.182Z,5596
2017-08-12T06:44:32.218Z,5420
2017-08-12T06:45:42.268Z,5320
2017-08-12T06:46:52.660Z,5348
2017-08-12T06:48:03.010Z,5516
2017-08-12T06:49:13.380Z,5496
2017-08-12T06:50:23.742Z,5432
2017-08-12T06:51:34.083Z,5464
2017-08-12T06:52:44.175Z,5324
2017-08-12T06:53:54.218Z,5336
2017-08-12T06:55:04.583Z,5352
2017-08-12T06:56:14.939Z,5448
2017-08-12T06:57:25.233Z,5436
2017-08-12T06:58:35.651Z,5384
2017-08-12T06:59:45.395Z,5384
2017-08-12T07:00:55.771Z,5252
2017-08-12T07:02:06.134Z,5004
2017-08-12T07:03:16.179Z,5244
2017-08-12T07:04:26.571Z,5096
2017-08-12T07:05:36.630Z,5052
2017-08-12T07:06:46.979Z,4764
2017-08-12T07:07:56.407Z,4524
2017-08-12T07:09:06.791Z,4824
2017-08-12T07:10:17.212Z,4892
2017-08-12T07:11:27.265Z,5092
2017-08-12T07:12:37.306Z,5216
2017-08-12T07:13:47.656Z,5156
2017-08-12T07:14:58.048Z,4936
2017-08-12T07:16:08.441Z,4828
2017-08-12T07:17:18.484Z,5152
2017-08-12T07:18:28.856Z,5088
2017-08-12T07:19:39.202Z,4988
2017-08-12T07:20:49.256Z,4924
2017-08-12T07:21:59.669Z,4808
2017-08-12T07:23:10.016Z,4832
2017-08-12T07:24:20.362Z,4796
2017-08-12T07:25:30.410Z,4784
2017-08-12T07:26:40.469Z,4792
2017-08-12T07:27:50.884Z,4880
2017-08-12T07:29:00.922Z,4784
2017-08-12T07:30:10.968Z,4700
2017-08-12T07:31:21.322Z,4720
2017-08-12T07:32:31.693Z,4748
2017-08-12T07:33:42.105Z,4832
2017-08-12T07:34:52.149Z,4828
2017-08-12T07:36:02.502Z,4724
2017-08-12T07:37:12.850Z,4852
2017-08-12T07:38:23.207Z,5120
2017-08-12T07:39:34.114Z,4772
2017-08-12T07:40:44.495Z,4648
2017-08-12T07:41:54.866Z,4444
2017-08-12T07:43:04.940Z,4576
2017-08-12T07:44:14.984Z,5008
2017-08-12T07:45:25.392Z,4752
2017-08-12T07:46:35.126Z,5360
2017-08-12T07:47:45.191Z,5620
2017-08-12T07:48:55.556Z,6284
2017-08-12T07:50:05.901Z,6444
2017-08-12T07:51:15.993Z,6588
2017-08-12T07:52:26.348Z,6136
2017-08-12T07:53:36.716Z,6496
2017-08-12T07:54:47.079Z,6652
2017-08-12T07:55:57.427Z,6496
2017-08-12T07:57:07.842Z,6092
2017-08-12T07:58:18.195Z,6648
2017-08-12T07:59:29.947Z,6420
2017-08-12T08:00:40.296Z,6316
2017-08-12T08:01:50.367Z,6280
2017-08-12T08:03:00.774Z,6396
2017-08-12T08:04:11.132Z,5932
2017-08-12T08:05:21.493Z,6208
2017-08-12T08:06:31.871Z,6056
2017-08-12T08:07:42.206Z,5980
2017-08-12T08:08:52.306Z,5668
2017-08-12T08:10:02.351Z,5896
2017-08-12T08:11:12.701Z,6036
2017-08-12T08:12:23.070Z,6112
2017-08-12T08:13:33.436Z,6300
2017-08-12T08:14:43.871Z,5096
2017-08-12T08:15:53.928Z,5616
2017-08-12T08:17:04.294Z,5608
2017-08-12T08:18:15.701Z,5208
2017-08-12T08:19:25.739Z,5900
2017-08-12T08:20:36.149Z,6076
2017-08-12T08:21:46.493Z,6756
2017-08-12T08:22:56.852Z,6788
2017-08-12T08:24:07.230Z,4660
2017-08-12T08:25:17.588Z,6864
2017-08-12T08:26:28.016Z,7764
2017-08-12T08:27:38.066Z,7404
2017-08-12T08:28:49.129Z,5904
2017-08-12T08:29:59.488Z,8596
2017-08-12T08:31:09.566Z,9284
2017-08-12T08:32:19.978Z,7672
2017-08-12T08:33:30.341Z,6708
2017-08-12T08:34:40.699Z,5996
2017-08-12T08:35:50.743Z,8776
2017-08-12T08:37:01.125Z,7156
2017-08-12T08:38:11.551Z,7344
2017-08-12T08:39:21.914Z,7164
2017-08-12T08:40:32.005Z,6908
2017-08-12T08:41:42.056Z,6420
2017-08-12T08:42:52.423Z,6260
2017-08-12T08:44:02.827Z,6632
2017-08-12T08:45:13.191Z,7108
2017-08-12T08:46:23.545Z,7052
2017-08-12T08:47:33.586Z,6776
2017-08-12T08:48:43.995Z,6464
2017-08-12T08:49:54.090Z,6160
2017-08-12T08:51:04.444Z,6168
2017-08-12T08:52:14.794Z,6264
2017-08-12T08:53:25.140Z,6060
2017-08-12T08:54:35.493Z,5560
2017-08-12T08:55:45.906Z,5828
2017-08-12T08:56:56.249Z,6348
2017-08-12T08:58:06.607Z,6416
2017-08-12T08:59:16.975Z,7044
2017-08-12T09:00:27.362Z,7360
2017-08-12T09:01:37.767Z,7552
2017-08-12T09:02:48.133Z,7584
2017-08-12T09:03:58.169Z,8200
2017-08-12T09:05:08.535Z,8792
2017-08-12T09:06:18.886Z,9140
2017-08-12T09:07:29.280Z,9496
2017-08-12T09:08:39.630Z,10180
2017-08-12T09:09:49.992Z,10300
2017-08-12T09:11:00.344Z,10772
2017-08-12T09:12:10.722Z,10284
2017-08-12T09:13:21.125Z,10396
2017-08-12T09:14:31.491Z,10072
2017-08-12T09:15:41.555Z,10392
2017-08-12T09:16:51.925Z,11124
2017-08-12T09:18:02.293Z,13616
2017-08-12T09:19:12.714Z,10672
2017-08-12T09:20:23.070Z,9752
2017-08-12T09:21:33.441Z,9464
2017-08-12T09:22:43.477Z,13068
2017-08-12T09:23:53.860Z,12052
2017-08-12T09:25:03.956Z,10172
2017-08-12T09:26:14.324Z,11696
2017-08-12T09:27:24.398Z,10408
2017-08-12T09:28:34.757Z,9880
2017-08-12T09:29:45.125Z,10048
2017-08-12T09:30:54.922Z,9648
2017-08-12T09:32:04.683Z,8576
2017-08-12T09:33:15.047Z,6620
2017-08-12T09:34:25.091Z,7868
2017-08-12T09:35:35.454Z,8296
2017-08-12T09:36:45.562Z,7676
2017-08-12T09:37:55.614Z,8128
2017-08-12T09:39:05.678Z,7888
2017-08-12T09:40:16.071Z,8592
2017-08-12T09:41:26.457Z,8908
2017-08-12T09:42:36.545Z,8536
2017-08-12T09:43:46.584Z,8272
2017-08-12T09:44:56.945Z,8272
2017-08-12T09:46:07.302Z,8016
2017-08-12T09:47:17.661Z,8200
2017-08-12T09:48:28.090Z,8568
2017-08-12T09:49:38.139Z,7268
2017-08-12T09:50:48.505Z,7232
2017-08-12T09:51:58.537Z,8240
2017-08-12T09:53:08.896Z,7900
2017-08-12T09:54:18.992Z,8396
2017-08-12T09:55:29.361Z,7908
2017-08-12T09:56:39.706Z,7768
2017-08-12T09:57:49.756Z,7556
2017-08-12T09:58:59.791Z,8436
2017-08-12T10:00:10.206Z,7660
2017-08-12T10:01:20.577Z,7040
2017-08-12T10:02:30.925Z,7008
2017-08-12T10:03:40.987Z,6340
2017-08-12T10:04:51.035Z,6120
2017-08-12T10:06:01.494Z,8024
2017-08-12T10:07:11.862Z,9216
2017-08-12T10:08:22.225Z,9472
2017-08-12T10:09:32.585Z,10072
2017-08-12T10:10:42.998Z,9772
2017-08-12T10:11:54.039Z,8780
2017-08-12T10:13:04.395Z,9824
2017-08-12T10:14:14.758Z,10480
2017-08-12T10:15:25.143Z,7064
2017-08-12T10:16:35.509Z,6940
2017-08-12T10:17:45.922Z,10580
2017-08-12T10:18:57.250Z,10832
2017-08-12T10:20:07.309Z,10712
2017-08-12T10:21:17.676Z,7192
2017-08-12T10:22:27.726Z,7292
2017-08-12T10:23:37.831Z,7632
2017-08-12T10:24:47.879Z,10140
2017-08-12T10:25:57.913Z,10096
2017-08-12T10:27:08.299Z,9484
2017-08-12T10:28:18.661Z,9020
2017-08-12T10:29:29.114Z,8368
2017-08-12T10:30:39.466Z,8448
2017-08-12T10:31:49.833Z,8172
2017-08-12T10:33:00.181Z,7688
2017-08-12T10:34:10.545Z,7584
2017-08-12T10:35:20.942Z,7568
2017-08-12T10:36:30.981Z,7652
2017-08-12T10:37:41.040Z,7716
2017-08-12T10:38:51.080Z,8064
2017-08-12T10:40:01.444Z,8720
2017-08-12T10:41:11.566Z,8952
2017-08-12T10:42:21.938Z,9456
2017-08-12T10:43:32.276Z,8504
2017-08-12T10:44:42.337Z,9388
2017-08-12T10:45:52.719Z,9180
2017-08-12T10:47:03.137Z,8108
2017-08-12T10:48:13.186Z,7804
2017-08-12T10:49:23.548Z,6708
2017-08-12T10:50:33.907Z,6852
2017-08-12T10:51:44.266Z,6744
2017-08-12T10:52:54.384Z,6832
2017-08-12T10:54:04.753Z,7216
2017-08-12T10:55:15.127Z,7628
2017-08-12T10:56:25.172Z,8000
2017-08-12T10:57:35.534Z,8344
2017-08-12T10:58:45.325Z,8976
2017-08-12T10:59:55.669Z,9268
2017-08-12T11:01:06.048Z,9596
2017-08-12T11:02:15.787Z,9924
2017-08-12T11:03:26.162Z,9652
2017-08-12T11:04:36.274Z,10080
2017-08-12T11:05:46.318Z,10564
2017-08-12T11:06:56.358Z,10852
2017-08-12T11:08:06.705Z,10200
2017-08-12T11:09:17.058Z,10360
2017-08-12T11:10:27.167Z,9868
2017-08-12T11:11:36.909Z,9696
2017-08-12T11:12:47.275Z,9988
2017-08-12T11:13:57.636Z,10380
2017-08-12T11:15:08.030Z,10560
2017-08-12T11:16:18.181Z,10516
2017-08-12T11:17:28.589Z,10172
2017-08-12T11:18:38.964Z,10076
2017-08-12T11:19:49.318Z,9824
2017-08-12T11:20:59.702Z,9356
2017-08-12T11:22:10.100Z,9104
2017-08-12T11:23:20.165Z,9008
2017-08-12T11:24:30.531Z,8820
2017-08-12T11:25:40.895Z,8628
2017-08-12T11:26:51.281Z,8660
2017-08-12T11:28:01.053Z,8900
2017-08-12T11:29:11.416Z,8904
2017-08-12T11:30:21.774Z,8816
2017-08-12T11:31:32.140Z,8936
2017-08-12T11:32:42.496Z,8888
2017-08-12T11:33:52.928Z,8836
2017-08-12T11:35:03.217Z,8924
2017-08-12T11:36:13.597Z,8976
2017-08-12T11:37:23.968Z,9108
2017-08-12T11:38:34.345Z,8544
2017-08-12T11:39:45.004Z,8680
2017-08-12T11:40:55.042Z,8252
2017-08-12T11:42:05.406Z,7904
2017-08-12T11:43:15.782Z,7908
2017-08-12T11:44:26.148Z,8224
2017-08-12T11:45:36.536Z,8328
2017-08-12T11:46:46.904Z,8400
2017-08-12T11:47:56.985Z,8180
2017-08-12T11:49:06.722Z,8040
2017-08-12T11:50:17.096Z,8172
2017-08-12T11:51:27.529Z,7944
2017-08-12T11:52:37.881Z,8588
2017-08-12T11:53:48.249Z,8372
2017-08-12T11:54:58.290Z,8776
2017-08-12T11:56:08.334Z,9612
2017-08-12T11:57:18.755Z,10168
2017-08-12T11:58:29.112Z,9540
2017-08-12T11:59:39.490Z,8148
2017-08-12T12:01:02.170Z,8092
2017-08-12T12:02:12.598Z,9564
2017-08-12T12:03:22.964Z,9644
2017-08-12T12:04:33.029Z,8540
2017-08-12T12:05:43.372Z,10580
2017-08-12T12:06:53.442Z,11016
2017-08-12T12:08:03.521Z,10856
2017-08-12T12:09:13.578Z,10792
2017-08-12T12:10:23.967Z,10876
2017-08-12T12:11:34.353Z,8692
2017-08-12T12:12:44.432Z,9112
2017-08-12T12:13:54.840Z,10992
2017-08-12T12:15:05.183Z,8420
2017-08-12T12:16:15.562Z,10028
2017-08-12T12:17:25.930Z,8448
2017-08-12T12:18:36.290Z,8248
2017-08-12T12:19:46.398Z,8228
2017-08-12T12:20:56.765Z,8172
2017-08-12T12:22:06.806Z,8584
2017-08-12T12:23:17.204Z,8116
2017-08-12T12:24:27.574Z,10380
2017-08-12T12:25:38.010Z,8212
2017-08-12T12:26:48.368Z,8456
2017-08-12T12:27:58.734Z,7840
2017-08-12T12:29:08.146Z,8988
2017-08-12T12:30:18.494Z,8820
2017-08-12T12:31:28.907Z,9012
2017-08-12T12:32:39.274Z,8704
2017-08-12T12:33:49.321Z,8740
2017-08-12T12:34:59.680Z,8588
2017-08-12T12:36:09.721Z,7568
2017-08-12T12:37:19.824Z,7988
2017-08-12T12:38:30.208Z,7520
2017-08-12T12:39:40.247Z,8380
2017-08-12T12:40:50.613Z,8512
2017-08-12T12:42:00.656Z,8300
2017-08-12T12:43:10.769Z,8208
2017-08-12T12:44:21.142Z,7924
2017-08-12T12:45:31.526Z,7960
2017-08-12T12:46:41.270Z,7832
2017-08-12T12:47:51.636Z,7816
2017-08-12T12:49:02.061Z,7372
2017-08-12T12:50:12.431Z,7768
2017-08-12T12:51:22.813Z,7616
2017-08-12T12:52:33.216Z,7600
2017-08-12T12:53:43.569Z,7916
2017-08-12T12:54:53.693Z,7988
2017-08-12T12:56:04.068Z,8172
2017-08-12T12:57:13.829Z,6312
2017-08-12T12:58:24.065Z,6944
2017-08-12T12:59:34.422Z,7800
2017-08-12T13:00:44.539Z,7892
2017-08-12T13:01:54.907Z,7976
2017-08-12T13:03:05.281Z,8040
2017-08-12T13:04:15.648Z,8040
2017-08-12T13:05:26.028Z,8324
2017-08-12T13:06:36.110Z,8288
2017-08-12T13:07:46.496Z,8316
2017-08-12T13:08:56.856Z,8196
2017-08-12T13:10:06.915Z,8132
2017-08-12T13:11:16.970Z,8112
2017-08-12T13:12:27.076Z,8048
2017-08-12T13:13:37.436Z,8356
2017-08-12T13:14:47.815Z,8380
2017-08-12T13:15:57.870Z,8304
2017-08-12T13:17:08.229Z,8148
2017-08-12T13:18:18.633Z,8220
2017-08-12T13:19:29.016Z,8472
2017-08-12T13:20:39.365Z,8476
2017-08-12T13:21:49.393Z,8436
2017-08-12T13:22:59.464Z,8164
2017-08-12T13:24:09.897Z,8116
2017-08-12T13:25:20.279Z,8308
2017-08-12T13:26:30.013Z,8272
2017-08-12T13:27:40.086Z,8480
2017-08-12T13:28:50.437Z,7872
2017-08-12T13:30:00.242Z,6900
2017-08-12T13:31:10.297Z,8776
2017-08-12T13:32:20.665Z,8648
2017-08-12T13:33:31.032Z,8364
2017-08-12T13:34:41.396Z,8300
2017-08-12T13:35:51.204Z,8100
2017-08-12T13:37:01.554Z,7924
2017-08-12T13:38:11.907Z,7896
2017-08-12T13:39:21.978Z,7360
2017-08-12T13:40:32.340Z,7340
2017-08-12T13:41:42.431Z,5408
2017-08-12T13:42:52.797Z,7072
2017-08-12T13:44:03.179Z,6344
2017-08-12T13:45:13.218Z,7004
2017-08-12T13:46:23.598Z,6648
2017-08-12T13:47:33.706Z,6736
2017-08-12T13:48:44.066Z,6524
2017-08-12T13:49:54.416Z,6616
2017-08-12T13:51:04.470Z,6828
2017-08-12T13:52:14.519Z,5400
2017-08-12T13:53:24.939Z,6952
2017-08-12T13:54:35.316Z,7060
2017-08-12T13:55:45.370Z,7128
2017-08-12T13:56:55.733Z,7092
2017-08-12T13:58:06.095Z,7324
2017-08-12T13:59:16.192Z,5280
2017-08-12T14:00:25.920Z,7212
2017-08-12T14:01:36.274Z,7224
2017-08-12T14:02:46.633Z,7152
2017-08-12T14:03:56.977Z,7204
2017-08-12T14:05:07.100Z,7396
2017-08-12T14:06:17.503Z,7236
2017-08-12T14:07:27.851Z,7128
2017-08-12T14:08:38.196Z,7308
2017-08-12T14:09:47.948Z,4568
2017-08-12T14:10:58.613Z,7352
2017-08-12T14:12:08.964Z,7428
2017-08-12T14:13:19.302Z,7392
2017-08-12T14:14:29.345Z,7316
2017-08-12T14:15:39.709Z,5748
2017-08-12T14:16:50.120Z,7868
2017-08-12T14:18:00.186Z,6064
2017-08-12T14:19:10.548Z,7972
2017-08-12T14:20:20.601Z,8060
2017-08-12T14:21:30.967Z,7440
2017-08-12T14:22:41.381Z,8104
2017-08-12T14:23:51.754Z,4844
2017-08-12T14:25:02.119Z,8212
2017-08-12T14:26:12.503Z,5312
2017-08-12T14:27:22.854Z,4876
2017-08-12T14:28:32.947Z,7824
2017-08-12T14:29:42.982Z,8112
2017-08-12T14:30:53.372Z,7928
2017-08-12T14:32:03.739Z,7840
2017-08-12T14:33:14.101Z,7744
2017-08-12T14:34:24.492Z,7692
2017-08-12T14:35:34.856Z,7204
2017-08-12T14:36:45.212Z,7664
2017-08-12T14:37:55.569Z,7756
2017-08-12T14:39:05.940Z,7804
2017-08-12T14:40:16.353Z,5284
2017-08-12T14:41:26.726Z,5516
2017-08-12T14:42:37.123Z,5688
2017-08-12T14:43:47.170Z,5932
2017-08-12T14:44:57.545Z,6136
2017-08-12T14:46:07.963Z,8448
2017-08-12T14:47:18.346Z,8288
2017-08-12T14:48:28.394Z,8280
2017-08-12T14:49:38.754Z,7676
2017-08-12T14:50:49.106Z,7068
2017-08-12T14:51:59.508Z,6740
2017-08-12T14:53:09.561Z,6656
2017-08-12T14:54:19.911Z,6464
2017-08-12T14:55:30.281Z,6632
2017-08-12T14:56:40.647Z,6256
2017-08-12T14:57:51.043Z,5968
2017-08-12T14:59:01.430Z,6000
2017-08-12T15:00:11.803Z,6240
2017-08-12T15:01:22.161Z,6128
2017-08-12T15:02:32.534Z,6116
2017-08-12T15:03:42.004Z,5940
2017-08-12T15:04:52.364Z,4296
2017-08-12T15:06:02.453Z,5520
2017-08-12T15:07:12.816Z,5972
2017-08-12T15:08:22.865Z,4224
2017-08-12T15:09:32.968Z,4188
2017-08-12T15:10:43.021Z,4616
2017-08-12T15:11:53.387Z,4864
2017-08-12T15:13:03.739Z,5644
2017-08-12T15:14:13.787Z,6996
2017-08-12T15:15:24.192Z,4632
2017-08-12T15:16:34.536Z,6832
2017-08-12T15:17:44.911Z,6652
2017-08-12T15:18:55.632Z,6752
2017-08-12T15:20:05.977Z,6484
2017-08-12T15:21:16.393Z,4408
2017-08-12T15:22:26.756Z,4048
2017-08-12T15:23:36.805Z,5776
2017-08-12T15:24:47.163Z,5564
2017-08-12T15:25:57.532Z,5524
2017-08-12T15:27:07.948Z,5348
2017-08-12T15:28:17.987Z,5384
2017-08-12T15:31:12.232Z,5096
2017-08-12T15:32:22.644Z,3420
2017-08-12T15:33:33.019Z,2928
2017-08-12T15:34:43.085Z,2968
2017-08-12T15:35:53.460Z,3176
2017-08-12T15:37:03.827Z,3684
2017-08-12T15:38:14.338Z,4484
2017-08-12T15:39:24.704Z,4888
2017-08-12T15:40:35.058Z,4164
2017-08-12T15:41:45.424Z,4672
2017-08-12T15:42:55.498Z,4664
2017-08-12T15:44:05.903Z,4596
2017-08-12T15:45:16.254Z,4636
2017-08-12T15:46:26.621Z,4592
2017-08-12T15:47:37.002Z,4520
2017-08-12T15:48:47.364Z,4520
2017-08-12T15:49:57.780Z,4408
2017-08-12T15:51:08.120Z,4428
2017-08-12T15:52:18.175Z,4312
2017-08-12T15:53:28.228Z,4100
2017-08-12T15:54:38.283Z,3148
2017-08-12T15:55:48.381Z,4024
2017-08-12T15:56:58.426Z,2616
2017-08-12T15:58:08.479Z,2596
2017-08-12T15:59:18.836Z,2744
2017-08-12T16:00:29.185Z,2848
2017-08-12T16:01:39.602Z,2948
2017-08-12T16:02:49.655Z,2968
2017-08-12T16:04:00.015Z,2916
2017-08-12T16:05:10.171Z,2876
2017-08-12T16:06:20.540Z,2824
2017-08-12T16:07:30.658Z,2776
2017-08-12T16:08:41.021Z,2776
2017-08-12T16:09:51.403Z,2820
2017-08-12T16:11:01.771Z,2856
2017-08-12T16:12:11.860Z,2792
2017-08-12T16:13:21.975Z,3020
2017-08-12T16:14:32.325Z,3688
2017-08-12T16:15:42.456Z,3400
2017-08-12T16:16:52.641Z,3092
2017-08-12T16:18:03.036Z,3188
2017-08-12T16:19:13.129Z,3860
2017-08-12T16:20:23.465Z,4412
2017-08-12T16:21:33.825Z,4708
2017-08-12T16:22:43.870Z,4524
2017-08-12T16:23:54.242Z,4196